createdAt,value
2022-10-15T00:00:43.769Z,4.10
2022-10-15T00:03:11.156Z,3.70
2022-10-15T00:05:39.657Z,3.77
2022-10-15T00:08:07.811Z,3.57
2022-10-15T00:10:35.470Z,3.33
2022-10-15T00:15:37.800Z,2.73
2022-10-15T00:18:05.226Z,2.67
2022-10-15T00:20:32.572Z,2.67
2022-10-15T00:23:00.225Z,2.70
2022-10-15T00:25:28.269Z,2.47
2022-10-15T00:27:55.673Z,2.90
2022-10-15T00:30:23.138Z,2.37
2022-10-15T00:32:51.714Z,2.33
2022-10-15T00:35:19.136Z,2.07
2022-10-15T00:37:46.544Z,1.97
2022-10-15T00:40:15.540Z,2.10
2022-10-15T00:42:43.521Z,2.20
2022-10-15T00:45:12.658Z,2.13
2022-10-15T00:47:41.174Z,2.00
2022-10-15T00:50:14.461Z,1.93
2022-10-15T00:52:41.819Z,2.10
2022-10-15T00:55:12.411Z,2.40
2022-10-15T00:57:40.354Z,2.30
2022-10-15T01:00:11.145Z,2.23
2022-10-15T01:02:40.415Z,2.07
2022-10-15T01:05:08.415Z,2.13
2022-10-15T01:07:35.778Z,2.47
2022-10-15T01:10:03.548Z,2.40
2022-10-15T01:12:49.137Z,2.20
2022-10-15T01:15:25.361Z,2.77
2022-10-15T01:18:04.361Z,2.40
2022-10-15T01:20:45.243Z,2.63
2022-10-15T01:23:26.640Z,2.40
2022-10-15T01:26:14.330Z,2.30
2022-10-15T01:28:47.460Z,2.40
2022-10-15T01:31:37.796Z,2.10
2022-10-15T01:34:08.497Z,2.33
2022-10-15T01:36:41.586Z,2.10
2022-10-15T01:39:20.495Z,2.40
2022-10-15T01:41:48.996Z,2.37
2022-10-15T01:44:20.100Z,2.33
2022-10-15T01:47:28.673Z,2.10
2022-10-15T01:49:57.249Z,2.00
2022-10-15T01:52:26.809Z,2.17
2022-10-15T01:54:54.593Z,2.07
2022-10-15T01:57:24.886Z,2.20
2022-10-15T01:59:54.282Z,2.20
2022-10-15T02:02:24.269Z,1.77
2022-10-15T02:04:51.924Z,1.90
2022-10-15T02:07:31.172Z,1.90
2022-10-15T02:09:58.522Z,2.00
2022-10-15T02:12:26.167Z,1.70
2022-10-15T02:14:54.731Z,2.03
2022-10-15T02:17:25.694Z,1.80
2022-10-15T02:19:55.926Z,1.80
2022-10-15T02:22:27.431Z,2.00
2022-10-15T02:24:57.805Z,1.50
2022-10-15T02:27:26.989Z,1.77
2022-10-15T02:29:55.138Z,1.67
2022-10-15T02:32:23.230Z,1.50
2022-10-15T02:34:51.935Z,1.50
2022-10-15T02:37:25.083Z,1.60
2022-10-15T02:39:52.734Z,1.40
2022-10-15T02:42:20.471Z,1.60
2022-10-15T02:44:49.126Z,1.33
2022-10-15T02:47:16.799Z,1.20
2022-10-15T02:49:44.226Z,1.80
2022-10-15T02:52:11.678Z,1.40
2022-10-15T02:54:39.108Z,1.50
2022-10-15T02:57:06.706Z,1.50
2022-10-15T02:59:34.181Z,1.40
2022-10-15T03:02:01.816Z,1.30
2022-10-15T03:04:29.970Z,1.27
2022-10-15T03:06:59.068Z,1.23
2022-10-15T03:09:26.783Z,1.20
2022-10-15T03:11:54.152Z,1.33
2022-10-15T03:14:21.503Z,1.60
2022-10-15T03:16:48.921Z,1.30
2022-10-15T03:19:17.677Z,1.50
2022-10-15T03:21:46.731Z,1.37
2022-10-15T03:24:16.410Z,1.40
2022-10-15T03:26:44.346Z,1.20
2022-10-15T03:29:11.795Z,1.20
2022-10-15T03:31:45.647Z,1.20
2022-10-15T03:34:13.025Z,1.30
2022-10-15T03:36:41.687Z,1.40
2022-10-15T03:39:14.719Z,1.30
2022-10-15T03:44:22.562Z,1.30
2022-10-15T03:47:01.881Z,1.20
2022-10-15T03:49:39.570Z,1.30
2022-10-15T03:52:07.677Z,1.23
2022-10-15T03:54:35.251Z,1.30
2022-10-15T03:57:03.090Z,1.20
2022-10-15T03:59:35.018Z,1.37
2022-10-15T04:02:03.908Z,1.30
2022-10-15T04:04:32.946Z,1.30
2022-10-15T04:07:00.305Z,1.30
2022-10-15T04:09:29.051Z,1.30
2022-10-15T04:12:17.637Z,1.50
2022-10-15T04:14:45.177Z,1.20
2022-10-15T04:17:12.578Z,1.20
2022-10-15T04:19:41.078Z,1.20
2022-10-15T04:22:08.692Z,1.27
2022-10-15T04:24:43.151Z,1.40
2022-10-15T04:27:11.279Z,1.17
2022-10-15T04:29:39.306Z,1.00
2022-10-15T04:32:17.751Z,1.20
2022-10-15T04:34:47.103Z,1.30
2022-10-15T04:37:16.263Z,1.10
2022-10-15T04:39:43.743Z,1.30
2022-10-15T04:42:14.009Z,1.13
2022-10-15T04:44:41.470Z,1.10
2022-10-15T04:47:09.101Z,1.10
2022-10-15T04:49:42.119Z,1.10
2022-10-15T04:52:41.086Z,1.17
2022-10-15T04:55:11.989Z,0.90
2022-10-15T04:57:39.818Z,0.80
2022-10-15T05:00:08.140Z,1.00
2022-10-15T05:02:58.044Z,0.80
2022-10-15T05:05:37.350Z,0.90
2022-10-15T05:08:05.756Z,1.00
2022-10-15T05:10:44.322Z,1.00
2022-10-15T05:13:12.841Z,0.90
2022-10-15T05:15:40.218Z,0.70
2022-10-15T05:18:10.267Z,1.30
2022-10-15T05:20:47.613Z,1.03
2022-10-15T05:23:18.815Z,0.80
2022-10-15T05:25:55.174Z,0.90
2022-10-15T05:28:25.823Z,0.90
2022-10-15T05:30:53.331Z,1.00
2022-10-15T05:33:21.081Z,0.97
2022-10-15T05:35:49.218Z,0.70
2022-10-15T05:38:16.611Z,0.80
2022-10-15T05:40:49.236Z,0.70
2022-10-15T05:43:20.903Z,1.47
2022-10-15T05:46:48.514Z,1.73
2022-10-15T05:49:22.371Z,1.00
2022-10-15T05:52:06.203Z,0.90
2022-10-15T05:54:53.823Z,1.10
2022-10-15T05:57:22.372Z,0.90
2022-10-15T05:59:49.672Z,0.90
2022-10-15T06:02:17.223Z,0.90
2022-10-15T06:04:44.685Z,0.70
2022-10-15T06:07:12.011Z,0.70
2022-10-15T06:09:39.360Z,0.93
2022-10-15T06:12:06.727Z,0.70
2022-10-15T06:14:34.060Z,1.00
2022-10-15T06:17:01.996Z,1.00
2022-10-15T06:19:29.400Z,1.10
2022-10-15T06:21:56.757Z,1.30
2022-10-15T06:24:24.165Z,0.90
2022-10-15T06:26:51.464Z,0.80
2022-10-15T06:29:18.826Z,0.93
2022-10-15T06:31:46.135Z,0.90
2022-10-15T06:34:13.556Z,0.80
2022-10-15T06:36:40.928Z,0.90
2022-10-15T06:39:08.328Z,0.70
2022-10-15T06:41:35.738Z,0.80
2022-10-15T06:44:03.244Z,0.80
2022-10-15T06:46:30.580Z,1.00
2022-10-15T06:48:57.993Z,0.60
2022-10-15T06:51:25.419Z,0.70
2022-10-15T06:53:52.873Z,0.50
2022-10-15T06:56:20.262Z,0.70
2022-10-15T06:58:47.620Z,0.57
2022-10-15T07:01:14.971Z,0.70
2022-10-15T07:03:42.380Z,0.60
2022-10-15T07:06:10.658Z,0.60
2022-10-15T07:08:38.233Z,0.60
2022-10-15T07:11:06.508Z,0.70
2022-10-15T07:13:33.983Z,0.50
2022-10-15T07:16:08.922Z,0.77
2022-10-15T07:18:37.203Z,0.60
2022-10-15T07:21:05.513Z,0.60
2022-10-15T07:23:32.970Z,0.50
2022-10-15T07:26:01.176Z,0.50
2022-10-15T07:28:28.640Z,0.70
2022-10-15T07:30:56.080Z,0.83
2022-10-15T07:33:23.386Z,0.67
2022-10-15T07:36:00.086Z,0.70
2022-10-15T07:38:27.541Z,0.50
2022-10-15T07:40:58.255Z,0.50
2022-10-15T07:43:26.950Z,0.60
2022-10-15T07:45:54.399Z,0.60
2022-10-15T07:48:21.853Z,0.70
2022-10-15T07:50:54.557Z,0.57
2022-10-15T07:53:22.727Z,0.57
2022-10-15T07:55:56.250Z,0.80
2022-10-15T07:58:24.327Z,0.73
2022-10-15T08:00:51.767Z,0.70
2022-10-15T08:03:19.138Z,0.73
2022-10-15T08:05:46.529Z,0.80
2022-10-15T08:08:13.926Z,0.90
2022-10-15T08:10:41.370Z,0.60
2022-10-15T08:13:08.663Z,0.70
2022-10-15T08:15:35.994Z,0.70
2022-10-15T08:18:03.314Z,0.80
2022-10-15T08:20:30.710Z,0.80
2022-10-15T08:22:58.559Z,0.70
2022-10-15T08:25:26.077Z,0.90
2022-10-15T08:27:54.128Z,0.77
2022-10-15T08:30:21.492Z,0.70
2022-10-15T08:32:48.994Z,0.70
2022-10-15T08:35:16.374Z,0.63
2022-10-15T08:37:43.836Z,0.80
2022-10-15T08:40:13.998Z,0.53
2022-10-15T08:42:42.887Z,0.70
2022-10-15T08:45:16.910Z,0.67
2022-10-15T08:47:54.984Z,0.80
2022-10-15T08:50:22.405Z,0.80
2022-10-15T08:52:51.158Z,0.70
2022-10-15T08:55:20.185Z,0.87
2022-10-15T08:57:50.703Z,0.80
2022-10-15T09:00:20.269Z,0.97
2022-10-15T09:02:51.778Z,0.80
2022-10-15T09:05:31.371Z,0.90
2022-10-15T09:07:58.756Z,1.00
2022-10-15T09:10:40.491Z,0.80
2022-10-15T09:13:28.934Z,0.97
2022-10-15T09:16:04.946Z,0.83
2022-10-15T09:18:34.361Z,0.90
2022-10-15T09:21:02.904Z,0.90
2022-10-15T09:23:30.590Z,0.83
2022-10-15T09:26:03.415Z,0.97
2022-10-15T09:28:37.650Z,0.90
2022-10-15T09:31:06.397Z,0.90
2022-10-15T09:33:40.849Z,0.90
2022-10-15T09:36:17.890Z,1.00
2022-10-15T09:38:51.277Z,0.80
2022-10-15T09:41:24.718Z,0.77
2022-10-15T09:43:53.072Z,0.97
2022-10-15T09:46:20.443Z,0.90
2022-10-15T09:48:56.577Z,0.77
2022-10-15T09:51:38.496Z,0.80
2022-10-15T09:54:08.671Z,0.83
2022-10-15T09:56:50.504Z,0.80
2022-10-15T09:59:19.075Z,0.80
2022-10-15T10:01:58.939Z,0.83
2022-10-15T10:04:28.296Z,0.80
2022-10-15T10:07:10.397Z,0.80
2022-10-15T10:09:50.582Z,0.83
2022-10-15T10:12:22.768Z,0.80
2022-10-15T10:14:56.437Z,0.73
2022-10-15T10:17:25.063Z,0.80
2022-10-15T10:20:10.799Z,0.80
2022-10-15T10:22:55.453Z,0.70
2022-10-15T10:25:43.173Z,0.70
2022-10-15T10:28:11.735Z,0.63
2022-10-15T10:30:42.752Z,0.80
2022-10-15T10:33:14.910Z,0.80
2022-10-15T10:35:46.613Z,0.80
2022-10-15T10:38:28.603Z,0.90
2022-10-15T10:40:59.133Z,0.93
2022-10-15T10:43:26.642Z,1.00
2022-10-15T10:45:53.981Z,1.00
2022-10-15T10:48:28.947Z,0.70
2022-10-15T10:51:09.254Z,0.80
2022-10-15T10:53:52.685Z,0.87
2022-10-15T10:56:29.029Z,0.90
2022-10-15T10:58:58.956Z,0.70
2022-10-15T11:01:26.439Z,0.90
2022-10-15T11:03:53.922Z,0.80
2022-10-15T11:06:30.201Z,0.80
2022-10-15T11:08:58.330Z,0.80
2022-10-15T11:11:34.553Z,1.03
2022-10-15T11:14:08.059Z,0.90
2022-10-15T11:16:46.308Z,0.90
2022-10-15T11:19:19.862Z,0.90
2022-10-15T11:25:07.948Z,0.90
2022-10-15T11:27:38.347Z,0.90
2022-10-15T11:30:09.531Z,0.80
2022-10-15T11:33:08.996Z,0.80
2022-10-15T11:35:52.372Z,0.80
2022-10-15T11:38:31.083Z,0.80
2022-10-15T11:41:17.446Z,0.87
2022-10-15T11:43:47.648Z,0.90
2022-10-15T11:46:19.744Z,0.70
2022-10-15T11:48:50.399Z,0.90
2022-10-15T11:51:20.921Z,0.90
2022-10-15T11:54:02.502Z,0.70
2022-10-15T11:56:36.375Z,0.73
2022-10-15T11:59:16.535Z,0.60
2022-10-15T12:01:50.082Z,0.70
2022-10-15T12:04:32.504Z,0.60
2022-10-15T12:07:03.230Z,0.77
2022-10-15T12:09:41.720Z,0.80
2022-10-15T12:12:16.003Z,0.80
2022-10-15T12:15:04.469Z,0.80
2022-10-15T12:17:37.708Z,0.70
2022-10-15T12:20:12.611Z,1.00
2022-10-15T12:22:50.215Z,0.80
2022-10-15T12:25:35.749Z,1.10
2022-10-15T12:28:13.949Z,0.87
2022-10-15T12:30:42.577Z,0.90
2022-10-15T12:33:28.372Z,0.90
2022-10-15T12:35:56.939Z,0.80
2022-10-15T12:38:27.901Z,0.90
2022-10-15T12:41:03.316Z,1.00
2022-10-15T12:43:34.747Z,0.90
2022-10-15T12:46:03.180Z,0.70
2022-10-15T12:48:32.724Z,0.80
2022-10-15T12:51:18.926Z,0.80
2022-10-15T12:53:47.181Z,0.80
2022-10-15T12:56:17.377Z,1.00
2022-10-15T12:58:55.561Z,0.90
2022-10-15T13:01:22.947Z,0.90
2022-10-15T13:03:53.146Z,1.00
2022-10-15T13:06:23.275Z,1.00
2022-10-15T13:09:09.321Z,1.00
2022-10-15T13:11:36.662Z,1.03
2022-10-15T13:14:08.628Z,1.00
2022-10-15T13:16:36.565Z,1.00
2022-10-15T13:19:04.444Z,0.80
2022-10-15T13:21:49.576Z,0.90
2022-10-15T13:24:21.589Z,1.00
2022-10-15T13:26:49.246Z,1.00
2022-10-15T13:29:22.360Z,1.00
2022-10-15T13:31:51.032Z,0.90
2022-10-15T13:34:21.380Z,0.80
2022-10-15T13:36:50.113Z,0.80
2022-10-15T13:39:40.671Z,0.70
2022-10-15T13:42:08.046Z,0.60
2022-10-15T13:44:35.518Z,0.90
2022-10-15T13:47:03.099Z,0.70
2022-10-15T13:49:30.492Z,0.60
2022-10-15T13:51:57.965Z,0.63
2022-10-15T13:54:31.094Z,0.77
2022-10-15T13:56:59.433Z,0.60
2022-10-15T13:59:31.547Z,0.70
2022-10-15T14:02:04.313Z,0.90
2022-10-15T14:04:33.109Z,0.73
2022-10-15T14:07:02.987Z,0.70
2022-10-15T14:09:37.919Z,0.90
2022-10-15T14:16:17.119Z,0.80
2022-10-15T14:18:48.953Z,0.90
2022-10-15T14:21:19.172Z,0.77
2022-10-15T14:23:47.125Z,0.80
2022-10-15T14:26:15.294Z,0.70
2022-10-15T14:28:43.748Z,0.80
2022-10-15T14:31:26.382Z,0.90
2022-10-15T14:33:53.931Z,0.80
2022-10-15T14:36:25.948Z,0.80
2022-10-15T14:38:53.963Z,0.77
2022-10-15T14:41:47.890Z,0.70
2022-10-15T14:44:15.285Z,0.80
2022-10-15T14:46:44.457Z,0.80
2022-10-15T14:49:38.015Z,1.00
2022-10-15T14:52:06.937Z,0.90
2022-10-15T14:54:39.396Z,0.80
2022-10-15T14:57:16.897Z,1.03
2022-10-15T14:59:44.335Z,0.90
2022-10-15T15:02:15.354Z,0.73
2022-10-15T15:04:44.319Z,0.77
2022-10-15T15:07:13.797Z,0.70
2022-10-15T15:09:42.013Z,0.80
2022-10-15T15:12:16.378Z,0.90
2022-10-15T15:14:43.795Z,1.00
2022-10-15T15:17:16.083Z,0.90
2022-10-15T15:19:44.012Z,0.80
2022-10-15T15:22:12.489Z,0.90
2022-10-15T15:24:39.956Z,0.70
2022-10-15T15:27:07.507Z,0.73
2022-10-15T15:29:34.989Z,0.63
2022-10-15T15:32:02.446Z,0.70
2022-10-15T15:34:29.916Z,0.80
2022-10-15T15:36:57.341Z,0.70
2022-10-15T15:39:24.729Z,0.80
2022-10-15T15:41:52.082Z,1.05
2022-10-15T15:44:19.490Z,0.90
2022-10-15T15:46:50.350Z,0.80
2022-10-15T15:49:19.227Z,0.90
2022-10-15T15:51:46.592Z,0.88
2022-10-15T15:54:14.039Z,0.77
2022-10-15T15:56:41.573Z,1.00
2022-10-15T15:59:08.932Z,0.90
2022-10-15T16:01:36.441Z,0.97
2022-10-15T16:04:03.812Z,0.90
2022-10-15T16:06:31.211Z,0.90
2022-10-15T16:08:59.574Z,0.90
2022-10-15T16:11:27.089Z,0.90
2022-10-15T16:13:54.508Z,0.90
2022-10-15T16:16:21.878Z,1.00
2022-10-15T16:18:49.335Z,0.95
2022-10-15T16:21:22.382Z,0.90
2022-10-15T16:23:50.089Z,0.90
2022-10-15T16:26:18.049Z,0.80
2022-10-15T16:28:45.509Z,1.00
2022-10-15T16:31:16.887Z,0.90
2022-10-15T16:33:44.576Z,1.30
2022-10-15T16:36:11.985Z,0.90
2022-10-15T16:38:40.548Z,0.87
2022-10-15T16:41:08.408Z,0.90
2022-10-15T16:43:35.944Z,1.00
2022-10-15T16:46:03.959Z,1.00
2022-10-15T16:48:32.444Z,1.80
2022-10-15T16:51:04.650Z,1.70
2022-10-15T16:53:35.813Z,1.10
2022-10-15T16:56:05.113Z,1.07
2022-10-15T16:58:32.810Z,1.10
2022-10-15T17:01:01.000Z,1.00
2022-10-15T17:03:29.560Z,0.90
2022-10-15T17:06:00.772Z,1.08
2022-10-15T17:08:32.057Z,0.90
2022-10-15T17:11:03.208Z,0.90
2022-10-15T17:13:30.604Z,1.10
2022-10-15T17:16:07.622Z,0.93
2022-10-15T17:18:34.990Z,0.95
2022-10-15T17:21:02.343Z,1.10
2022-10-15T17:23:30.769Z,1.23
2022-10-15T17:25:58.148Z,1.30
2022-10-15T17:28:25.588Z,1.23
2022-10-15T17:30:52.962Z,1.27
2022-10-15T17:33:20.357Z,1.10
2022-10-15T17:35:47.786Z,1.00
2022-10-15T17:38:18.003Z,1.25
2022-10-15T17:40:47.942Z,1.10
2022-10-15T17:43:15.296Z,1.15
2022-10-15T17:45:42.653Z,1.30
2022-10-15T17:48:10.124Z,1.60
2022-10-15T17:50:43.063Z,1.47
2022-10-15T17:53:13.372Z,1.50
2022-10-15T17:55:41.075Z,1.60
2022-10-15T17:58:08.412Z,1.70
2022-10-15T18:00:35.914Z,4.77
2022-10-15T18:03:03.366Z,3.53
2022-10-15T18:05:32.018Z,1.90
2022-10-15T18:07:59.403Z,1.43
2022-10-15T18:10:29.136Z,1.70
2022-10-15T18:12:57.087Z,2.20
2022-10-15T18:15:24.534Z,1.47
2022-10-15T18:17:51.947Z,1.40
2022-10-15T18:20:19.505Z,1.40
2022-10-15T18:22:47.718Z,1.33
2022-10-15T18:25:15.197Z,1.13
2022-10-15T18:27:42.768Z,1.03
2022-10-15T18:30:13.690Z,1.20
2022-10-15T18:32:41.104Z,1.10
2022-10-15T18:35:08.595Z,1.30
2022-10-15T18:37:35.956Z,1.17
2022-10-15T18:40:03.509Z,1.30
2022-10-15T18:42:30.846Z,1.10
2022-10-15T18:44:58.223Z,1.20
2022-10-15T18:47:25.669Z,1.23
2022-10-15T18:49:53.427Z,1.03
2022-10-15T18:52:35.261Z,1.10
2022-10-15T18:55:07.341Z,1.10
2022-10-15T18:57:34.918Z,1.10
2022-10-15T19:00:02.779Z,1.33
2022-10-15T19:02:30.152Z,1.13
2022-10-15T19:04:57.503Z,1.10
2022-10-15T19:07:24.888Z,1.30
2022-10-15T19:09:52.264Z,1.30
2022-10-15T19:12:27.790Z,1.00
2022-10-15T19:14:55.289Z,1.30
2022-10-15T19:17:22.741Z,1.30
2022-10-15T19:19:50.982Z,1.10
2022-10-15T19:22:18.908Z,1.20
2022-10-15T19:24:46.250Z,1.10
2022-10-15T19:27:13.794Z,1.20
2022-10-15T19:29:41.141Z,1.20
2022-10-15T19:32:08.539Z,1.20
2022-10-15T19:34:36.447Z,2.77
2022-10-15T19:37:03.970Z,1.87
2022-10-15T19:39:35.598Z,3.50
2022-10-15T19:42:03.275Z,1.70
2022-10-15T19:44:30.650Z,7.47
2022-10-15T19:46:58.147Z,2.63
2022-10-15T19:49:25.804Z,5.63
2022-10-15T19:51:53.535Z,4.23
2022-10-15T19:54:21.021Z,17.53
2022-10-15T19:56:48.418Z,31.43
2022-10-15T19:59:16.919Z,11.03
2022-10-15T20:01:44.372Z,26.03
2022-10-15T20:04:11.832Z,10.73
2022-10-15T20:06:39.327Z,3.90
2022-10-15T20:09:07.324Z,3.00
2022-10-15T20:11:34.846Z,2.20
2022-10-15T20:14:02.687Z,1.57
2022-10-15T20:16:33.218Z,1.70
2022-10-15T20:19:02.285Z,1.60
2022-10-15T20:21:29.744Z,1.40
2022-10-15T20:23:57.190Z,1.50
2022-10-15T20:26:24.807Z,1.87
2022-10-15T20:28:53.547Z,1.50
2022-10-15T20:31:21.779Z,1.50
2022-10-15T20:33:49.573Z,1.50
2022-10-15T20:36:23.503Z,1.23
2022-10-15T20:38:51.278Z,1.10
2022-10-15T20:41:18.662Z,1.17
2022-10-15T20:43:47.293Z,1.30
2022-10-15T20:46:17.204Z,1.30
2022-10-15T20:48:45.805Z,1.33
2022-10-15T20:51:15.462Z,1.53
2022-10-15T20:53:43.604Z,1.10
2022-10-15T20:56:11.039Z,1.33
2022-10-15T20:58:38.855Z,1.50
2022-10-15T21:01:07.945Z,1.40
2022-10-15T21:03:35.438Z,1.27
2022-10-15T21:06:02.824Z,1.53
2022-10-15T21:08:30.186Z,1.47
2022-10-15T21:11:07.961Z,1.77
2022-10-15T21:13:35.341Z,1.40
2022-10-15T21:16:05.671Z,1.30
2022-10-15T21:18:33.280Z,1.30
2022-10-15T21:21:05.281Z,1.17
2022-10-15T21:23:33.318Z,1.30
2022-10-15T21:26:10.989Z,1.53
2022-10-15T21:28:38.824Z,1.30
2022-10-15T21:31:10.375Z,1.53
2022-10-15T21:33:38.074Z,1.50
2022-10-15T21:36:14.614Z,1.30
2022-10-15T21:38:42.301Z,1.60
2022-10-15T21:41:09.751Z,1.40
2022-10-15T21:43:37.217Z,1.23
2022-10-15T21:46:11.983Z,1.50
2022-10-15T21:48:39.785Z,1.40
2022-10-15T21:51:11.308Z,1.50
2022-10-15T21:53:38.698Z,1.50
2022-10-15T21:56:07.953Z,1.77
2022-10-15T21:58:37.817Z,1.60
2022-10-15T22:01:09.615Z,1.50
2022-10-15T22:03:37.070Z,1.17
2022-10-15T22:06:04.815Z,1.40
2022-10-15T22:08:32.303Z,1.30
2022-10-15T22:11:09.565Z,1.43
2022-10-15T22:13:37.112Z,1.40
2022-10-15T22:16:04.899Z,1.30
2022-10-15T22:18:32.331Z,1.43
2022-10-15T22:21:09.084Z,1.23
2022-10-15T22:23:36.469Z,1.40
2022-10-15T22:26:03.773Z,1.40
2022-10-15T22:28:31.303Z,1.33
2022-10-15T22:31:02.947Z,1.20
2022-10-15T22:33:30.325Z,1.47
2022-10-15T22:36:07.967Z,1.57
2022-10-15T22:38:35.319Z,1.60
2022-10-15T22:41:04.851Z,1.60
2022-10-15T22:43:34.037Z,1.50
2022-10-15T22:46:01.396Z,1.37
2022-10-15T22:48:28.829Z,1.30
2022-10-15T22:50:57.317Z,1.43
2022-10-15T22:53:24.839Z,1.33
2022-10-15T22:55:56.581Z,1.33
2022-10-15T22:58:24.637Z,1.30
2022-10-15T23:00:52.110Z,1.50
2022-10-15T23:03:19.806Z,1.40
2022-10-15T23:05:53.651Z,1.50
2022-10-15T23:08:21.644Z,1.30
2022-10-15T23:10:49.130Z,1.47
2022-10-15T23:13:16.527Z,1.33
2022-10-15T23:15:43.943Z,1.30
2022-10-15T23:18:11.332Z,1.20
2022-10-15T23:20:38.985Z,1.30
2022-10-15T23:23:06.662Z,1.50
2022-10-15T23:25:38.538Z,1.50
2022-10-15T23:28:06.061Z,1.50
2022-10-15T23:30:33.515Z,1.63
2022-10-15T23:33:02.955Z,1.30
2022-10-15T23:35:30.329Z,1.50
2022-10-15T23:37:57.742Z,1.50
2022-10-15T23:40:25.100Z,1.37
2022-10-15T23:42:52.500Z,1.40
2022-10-15T23:45:19.842Z,1.67
2022-10-15T23:47:47.168Z,1.30
2022-10-15T23:50:14.628Z,1.33
2022-10-15T23:52:42.005Z,1.50
2022-10-15T23:55:09.435Z,1.40
2022-10-15T23:57:36.823Z,1.50
